メインページ
METAR-TAF:

METAR-TAF

空港 :

ケアンズ国際空港

ケアンズ, オーストラリア

緯度: 16-53S, 経度: 145-45E, 海抜: 3m

現時点の気象観測

当レポートは27分前の14:30(UTC)に作成
の風 9kt
気温 22°C
湿度 88%
気圧 1016 hPa
視程10km以上
高度2400ftの雲はほとんどない
高度5300ftの千切れ雲あり

METAR: YBCS 251430Z 17009KT 9999 FEW024 BKN053 22/20 Q1016 INTER 1500/1730 4000 SHRA FEW014 BKN018

時間: 00:57 (14:57 UTC)

予報

当レポートは3時間17分前の11:40(UTC)に作成
予報は25日の 12時(UTC)から 26日の 12時(UTC)まで有効
南東の風 10kt
視程10km以上
高度2500ftの雲は散在している
高度4500ftの千切れ雲あり
弱いにわか雨
26日の 0100時(UTC)から
南東の風 14kt
視程: 4000m
高度2500ftの雲は散在している
高度4500ftの雲は散在している
高度1800ftの千切れ雲あり
弱いにわか雨, にわか雨

TAF: YBCS 251140Z 2512/2612 14010KT 9999 -SHRA SCT025 BKN045 FM260100 13014KT 9999 -SHRA SCT025 SCT045 INTER 2512/2524 4000 SHRA BKN018

4,000以上の空港の気象観測と天気予報(METAR報とTAF報)

利用可能な観測所は地図上に黄色い丸と赤い丸で示す。

丸の上にカーソルを重ねると観測所名を参照できる。

次にクリックすると気象観測と天気予報を参照できる。

マップの切り替え:黒色「×」印の緑ボタンをクリックして拡大、「-」印の緑ボタンをクリックして縮小、緑色の三角印をクリックして隣りの地図に切り替え


METAR-TAF: